Time;durP1;ratioP1;P1;durP2;ratioP2;P2;SDS_P1;SDS_P2;PMS_P1;PMS_P2;Temp;Humidity;BMP_temperature;BMP_pressure;BME280_temperature;BME280_humidity;BME280_pressure;Samples;Min_cycle;Max_cycle;Signal;HPM_P1;HPM_P2
2022/07/23 00:00:42;;;;;;;19.05;11.02;;;;;;;;;;5076790;28;20211;-47
2022/07/23 00:03:09;;;;;;;14.52;10.35;;;;;;;;;;5076405;28;20201;-46
2022/07/23 00:05:36;;;;;;;18.95;10.55;;;;;;;;;;5076326;28;20510;-47
2022/07/23 00:08:05;;;;;;;16.30;10.63;;;;;;;;;;5076580;28;20288;-49
2022/07/23 00:10:39;;;;;;;15.40;10.52;;;;;;;;;;5076720;28;20222;-46
2022/07/23 00:13:06;;;;;;;18.98;11.30;;;;;;;;;;5076184;28;20203;-48
2022/07/23 00:15:33;;;;;;;15.77;10.52;;;;;;;;;;5076045;28;20535;-46
2022/07/23 00:18:00;;;;;;;26.52;11.13;;;;;;;;;;5075925;28;20203;-47
2022/07/23 00:20:27;;;;;;;18.05;10.43;;;;;;;;;;5075794;28;20199;-46
2022/07/23 00:22:55;;;;;;;15.68;11.20;;;;;;;;;;5076468;28;20557;-46
2022/07/23 00:25:22;;;;;;;18.58;11.20;;;;;;;;;;5075882;28;20634;-48
2022/07/23 00:27:57;;;;;;;20.60;11.10;;;;;;;;;;5075633;28;20621;-46
2022/07/23 00:30:24;;;;;;;19.20;10.40;;;;;;;;;;5075858;28;20285;-48
2022/07/23 00:32:53;;;;;;;16.63;10.65;;;;;;;;;;5074778;28;20207;-46
2022/07/23 00:35:28;;;;;;;18.25;10.60;;;;;;;;;;5075566;28;20265;-47
2022/07/23 00:37:56;;;;;;;17.17;10.63;;;;;;;;;;5075000;28;20551;-46
2022/07/23 00:40:23;;;;;;;23.42;11.02;;;;;;;;;;5075777;28;20207;-47
2022/07/23 00:42:51;;;;;;;17.52;11.18;;;;;;;;;;5074905;28;20199;-48
2022/07/23 00:45:18;;;;;;;15.73;10.63;;;;;;;;;;5075293;28;20277;-46
2022/07/23 00:47:45;;;;;;;16.42;10.40;;;;;;;;;;5074647;28;20204;-47
2022/07/23 00:50:13;;;;;;;19.60;10.70;;;;;;;;;;5072832;28;20227;-46
2022/07/23 00:52:40;;;;;;;16.15;10.60;;;;;;;;;;5073519;28;20227;-52
2022/07/23 00:55:09;;;;;;;15.02;10.63;;;;;;;;;;5074585;28;20209;-47
2022/07/23 00:57:37;;;;;;;25.23;10.60;;;;;;;;;;5075106;28;20235;-50
2022/07/23 01:00:06;;;;;;;13.88;10.48;;;;;;;;;;5075003;28;20226;-50
2022/07/23 01:02:33;;;;;;;17.65;10.57;;;;;;;;;;5074173;28;20203;-48
2022/07/23 01:05:01;;;;;;;14.80;11.20;;;;;;;;;;5075387;28;20257;-47
2022/07/23 01:07:28;;;;;;;11.48;10.15;;;;;;;;;;5108264;28;20209;-47
2022/07/23 01:09:55;;;;;;;20.70;10.50;;;;;;;;;;5074774;28;20237;-46
2022/07/23 01:12:23;;;;;;;17.98;10.27;;;;;;;;;;5108110;28;20652;-46
2022/07/23 01:14:55;;;;;;;14.60;9.50;;;;;;;;;;5107791;28;20201;-46
2022/07/23 01:17:22;;;;;;;15.60;10.10;;;;;;;;;;5074184;28;20209;-47
2022/07/23 01:19:49;;;;;;;11.95;9.65;;;;;;;;;;5107849;28;20207;-46
2022/07/23 01:22:19;;;;;;;12.38;9.00;;;;;;;;;;5107917;28;20290;-47
2022/07/23 01:24:46;;;;;;;14.40;10.73;;;;;;;;;;5074119;28;20204;-46
2022/07/23 01:27:17;;;;;;;17.83;9.80;;;;;;;;;;5073947;28;20203;-49
2022/07/23 01:29:46;;;;;;;16.38;11.73;;;;;;;;;;5074479;28;20223;-48
2022/07/23 01:32:17;;;;;;;17.05;10.90;;;;;;;;;;5074169;28;20191;-46
2022/07/23 01:34:45;;;;;;;19.58;11.13;;;;;;;;;;5074899;28;20203;-46
2022/07/23 01:37:12;;;;;;;15.15;10.82;;;;;;;;;;5073785;28;20199;-47
2022/07/23 01:39:39;;;;;;;18.35;11.30;;;;;;;;;;5074425;28;20559;-46
2022/07/23 01:42:07;;;;;;;19.20;10.02;;;;;;;;;;5073758;28;20222;-47
2022/07/23 01:44:34;;;;;;;15.65;9.63;;;;;;;;;;5074648;28;20199;-46
2022/07/23 01:47:02;;;;;;;14.88;10.93;;;;;;;;;;5073921;28;20218;-46
2022/07/23 01:49:31;;;;;;;13.45;9.98;;;;;;;;;;5073934;28;20237;-45
2022/07/23 01:52:01;;;;;;;15.25;9.85;;;;;;;;;;5074717;28;20203;-47
2022/07/23 01:54:35;;;;;;;13.98;9.82;;;;;;;;;;5074164;28;20245;-46
2022/07/23 01:57:06;;;;;;;15.23;10.48;;;;;;;;;;5073313;28;20544;-46
2022/07/23 01:59:34;;;;;;;13.55;10.27;;;;;;;;;;5073630;28;20211;-47
2022/07/23 02:02:03;;;;;;;15.70;10.68;;;;;;;;;;5073294;28;20207;-47
2022/07/23 02:04:31;;;;;;;17.88;9.98;;;;;;;;;;5074180;28;20208;-47
2022/07/23 02:06:59;;;;;;;15.65;10.18;;;;;;;;;;5073549;28;20295;-47
2022/07/23 02:09:27;;;;;;;13.60;9.02;;;;;;;;;;5073420;28;20214;-46
2022/07/23 02:11:54;;;;;;;15.30;9.68;;;;;;;;;;5073964;28;20318;-47
2022/07/23 02:14:21;;;;;;;16.80;9.25;;;;;;;;;;5073258;28;20585;-46
2022/07/23 02:16:48;;;;;;;14.05;10.45;;;;;;;;;;5074221;28;20512;-48
2022/07/23 02:19:15;;;;;;;16.90;10.65;;;;;;;;;;5073948;28;20233;-46
2022/07/23 02:21:42;;;;;;;14.75;10.32;;;;;;;;;;5075027;28;20224;-46
2022/07/23 02:24:09;;;;;;;14.00;10.65;;;;;;;;;;5078072;28;20210;-46
2022/07/23 02:26:37;;;;;;;16.98;10.70;;;;;;;;;;5077342;28;20283;-46
2022/07/23 02:29:06;;;;;;;16.17;10.38;;;;;;;;;;5076872;28;20209;-46
2022/07/23 02:31:34;;;;;;;15.15;11.10;;;;;;;;;;5077802;28;20231;-48
2022/07/23 02:34:01;;;;;;;14.02;11.02;;;;;;;;;;5076741;28;20653;-46
2022/07/23 02:36:28;;;;;;;13.35;10.75;;;;;;;;;;5077128;28;20199;-46
2022/07/23 02:38:56;;;;;;;14.27;10.38;;;;;;;;;;5076931;28;20215;-47
2022/07/23 02:41:26;;;;;;;15.05;9.95;;;;;;;;;;5076845;28;20218;-46
2022/07/23 02:43:52;;;;;;;18.60;10.63;;;;;;;;;;5076513;28;20211;-47
2022/07/23 02:46:21;;;;;;;14.25;10.68;;;;;;;;;;5077017;28;20207;-47
2022/07/23 02:48:48;;;;;;;15.65;10.98;;;;;;;;;;5076717;28;20229;-47
2022/07/23 02:51:15;;;;;;;15.52;11.23;;;;;;;;;;5076513;28;20459;-46
2022/07/23 02:53:50;;;;;;;17.25;10.73;;;;;;;;;;5076656;28;20206;-46
2022/07/23 02:56:17;;;;;;;14.85;10.68;;;;;;;;;;5077226;28;20265;-45
2022/07/23 02:58:44;;;;;;;20.33;10.68;;;;;;;;;;5076513;28;20235;-46
2022/07/23 03:01:12;;;;;;;23.75;11.70;;;;;;;;;;5076548;28;20274;-46
2022/07/23 03:03:39;;;;;;;16.38;11.10;;;;;;;;;;5076728;28;20268;-46
2022/07/23 03:06:06;;;;;;;13.88;10.43;;;;;;;;;;5077576;28;20210;-46
2022/07/23 03:08:34;;;;;;;17.42;11.38;;;;;;;;;;5076645;28;20203;-47
2022/07/23 03:11:01;;;;;;;16.15;11.43;;;;;;;;;;5077289;28;20219;-45
2022/07/23 03:13:29;;;;;;;19.25;11.93;;;;;;;;;;5076245;28;20626;-46
2022/07/23 03:15:57;;;;;;;18.15;10.80;;;;;;;;;;5076720;28;20204;-46
2022/07/23 03:18:24;;;;;;;18.73;10.48;;;;;;;;;;5076407;28;20199;-47
2022/07/23 03:20:53;;;;;;;15.07;10.73;;;;;;;;;;5077436;28;20211;-47
2022/07/23 03:23:21;;;;;;;17.05;12.60;;;;;;;;;;5076629;28;20261;-46
2022/07/23 03:25:48;;;;;;;14.23;10.98;;;;;;;;;;5077160;28;20203;-48
2022/07/23 03:28:21;;;;;;;17.67;12.10;;;;;;;;;;5076698;28;20224;-49
2022/07/23 03:30:48;;;;;;;15.15;11.30;;;;;;;;;;5076987;28;20219;-47
2022/07/23 03:33:17;;;;;;;15.43;11.40;;;;;;;;;;5076768;28;20299;-46
2022/07/23 03:35:45;;;;;;;15.63;11.73;;;;;;;;;;5076064;28;20195;-48
2022/07/23 03:38:25;;;;;;;18.42;11.50;;;;;;;;;;5076498;28;20222;-48
2022/07/23 03:40:53;;;;;;;16.48;11.93;;;;;;;;;;5075947;28;20203;-50
2022/07/23 03:43:20;;;;;;;15.75;11.50;;;;;;;;;;5075962;28;20269;-46
2022/07/23 03:45:47;;;;;;;15.25;11.38;;;;;;;;;;5075992;28;20207;-48
2022/07/23 03:48:14;;;;;;;15.82;11.07;;;;;;;;;;5075693;28;20203;-48
2022/07/23 03:50:43;;;;;;;16.40;11.50;;;;;;;;;;5075871;28;20219;-46
2022/07/23 03:53:10;;;;;;;17.65;11.15;;;;;;;;;;5075484;28;20579;-49
2022/07/23 03:55:37;;;;;;;15.40;12.45;;;;;;;;;;5075517;28;20642;-46
2022/07/23 03:58:04;;;;;;;20.77;12.25;;;;;;;;;;5075291;28;20263;-49
2022/07/23 04:00:31;;;;;;;18.05;11.55;;;;;;;;;;5075516;28;20634;-46
2022/07/23 04:02:59;;;;;;;18.13;10.95;;;;;;;;;;5076508;28;20203;-46
2022/07/23 04:05:27;;;;;;;21.13;11.85;;;;;;;;;;5075181;28;20254;-46
2022/07/23 04:08:03;;;;;;;15.02;11.65;;;;;;;;;;5075549;28;20630;-49
2022/07/23 04:10:31;;;;;;;20.33;12.50;;;;;;;;;;5075372;28;20288;-45
2022/07/23 04:12:57;;;;;;;19.83;12.68;;;;;;;;;;5075384;28;20211;-47
2022/07/23 04:15:25;;;;;;;21.30;12.60;;;;;;;;;;5075155;28;20269;-48
2022/07/23 04:17:52;;;;;;;18.77;12.98;;;;;;;;;;5075175;28;20195;-46
2022/07/23 04:20:19;;;;;;;19.23;13.85;;;;;;;;;;5075258;28;20265;-48
2022/07/23 04:22:54;;;;;;;16.40;13.13;;;;;;;;;;5075172;28;20187;-47
2022/07/23 04:25:23;;;;;;;19.15;13.95;;;;;;;;;;5074797;28;20653;-49
2022/07/23 04:27:50;;;;;;;17.95;13.95;;;;;;;;;;5075953;28;20206;-48
2022/07/23 04:30:17;;;;;;;20.85;14.25;;;;;;;;;;5073561;28;20237;-49
2022/07/23 04:32:44;;;;;;;16.38;13.85;;;;;;;;;;5069603;28;20214;-49
2022/07/23 04:35:21;;;;;;;21.27;13.88;;;;;;;;;;5108733;28;20293;-49
2022/07/23 04:37:50;;;;;;;19.50;14.75;;;;;;;;;;5108595;28;20200;-48
2022/07/23 04:40:18;;;;;;;17.77;13.60;;;;;;;;;;5108615;28;20226;-49
2022/07/23 04:42:46;;;;;;;19.20;13.93;;;;;;;;;;5108534;28;20211;-49
2022/07/23 04:45:13;;;;;;;20.10;14.23;;;;;;;;;;5108055;28;20303;-48
2022/07/23 04:47:41;;;;;;;23.88;13.50;;;;;;;;;;5091119;28;20204;-48
2022/07/23 04:50:08;;;;;;;22.13;13.20;;;;;;;;;;5054489;28;20257;-49
2022/07/23 04:52:39;;;;;;;15.63;12.70;;;;;;;;;;5073845;28;20222;-49
2022/07/23 04:55:07;;;;;;;16.52;12.13;;;;;;;;;;5073705;28;20208;-51
2022/07/23 04:57:34;;;;;;;17.23;11.80;;;;;;;;;;5073587;28;20320;-48
2022/07/23 05:00:02;;;;;;;14.38;12.23;;;;;;;;;;5056927;28;20211;-50
2022/07/23 05:02:30;;;;;;;14.95;11.68;;;;;;;;;;5073451;28;20207;-48
2022/07/23 05:04:57;;;;;;;16.75;11.90;;;;;;;;;;5057098;28;20359;-48
2022/07/23 05:07:24;;;;;;;18.73;11.40;;;;;;;;;;5073468;28;20210;-51
2022/07/23 05:09:51;;;;;;;13.45;10.02;;;;;;;;;;5056653;28;20203;-49
2022/07/23 05:12:18;;;;;;;15.02;9.93;;;;;;;;;;5056758;28;20231;-50
2022/07/23 05:14:45;;;;;;;14.45;10.35;;;;;;;;;;5056762;28;20199;-49
2022/07/23 05:17:12;;;;;;;13.75;10.05;;;;;;;;;;5056619;28;20214;-51
2022/07/23 05:19:40;;;;;;;13.13;9.93;;;;;;;;;;5057315;28;20199;-50
2022/07/23 05:22:08;;;;;;;14.10;9.43;;;;;;;;;;5044388;28;20284;-51
2022/07/23 05:24:35;;;;;;;12.68;10.15;;;;;;;;;;5065331;28;20607;-55
2022/07/23 05:27:03;;;;;;;11.35;9.45;;;;;;;;;;5072994;28;20235;-51
2022/07/23 05:29:31;;;;;;;14.05;10.32;;;;;;;;;;5073525;28;20242;-51
2022/07/23 05:31:58;;;;;;;13.90;9.65;;;;;;;;;;5073374;28;20230;-50
2022/07/23 05:34:27;;;;;;;17.75;9.35;;;;;;;;;;5072833;28;20219;-47
2022/07/23 05:36:54;;;;;;;14.68;9.88;;;;;;;;;;5072169;28;20262;-50
2022/07/23 05:39:21;;;;;;;12.98;9.20;;;;;;;;;;5072861;28;20657;-49
2022/07/23 05:41:48;;;;;;;19.17;8.82;;;;;;;;;;5072710;28;20228;-49
2022/07/23 05:44:15;;;;;;;11.38;9.07;;;;;;;;;;5072863;28;20301;-47
2022/07/23 05:46:43;;;;;;;11.57;8.93;;;;;;;;;;5072910;28;20557;-48
2022/07/23 05:49:18;;;;;;;12.52;9.02;;;;;;;;;;5073784;28;20552;-47
2022/07/23 05:52:07;;;;;;;15.25;9.48;;;;;;;;;;5074552;28;20223;-47
2022/07/23 05:54:57;;;;;;;16.88;8.90;;;;;;;;;;5048524;28;20203;-48
2022/07/23 05:57:25;;;;;;;15.65;8.57;;;;;;;;;;5075126;28;20613;-47
2022/07/23 05:59:52;;;;;;;17.45;9.23;;;;;;;;;;5075663;28;20223;-50
2022/07/23 06:02:19;;;;;;;14.57;7.95;;;;;;;;;;5076330;28;20556;-50
2022/07/23 06:04:46;;;;;;;14.02;8.15;;;;;;;;;;5076634;28;20234;-51
2022/07/23 06:07:22;;;;;;;15.40;8.10;;;;;;;;;;5076254;28;20230;-50
2022/07/23 06:09:49;;;;;;;11.32;7.40;;;;;;;;;;5076032;28;20673;-49
2022/07/23 06:12:17;;;;;;;10.10;7.28;;;;;;;;;;5076156;28;20631;-49
2022/07/23 06:14:44;;;;;;;10.55;7.28;;;;;;;;;;5076654;28;20226;-52
2022/07/23 06:17:11;;;;;;;16.00;7.70;;;;;;;;;;5076324;28;20234;-51
2022/07/23 06:19:38;;;;;;;10.80;7.43;;;;;;;;;;5077370;28;20603;-48
2022/07/23 06:22:06;;;;;;;13.80;7.13;;;;;;;;;;5076158;28;20222;-52
2022/07/23 06:24:32;;;;;;;10.63;7.05;;;;;;;;;;5076153;28;20219;-54
2022/07/23 06:26:59;;;;;;;10.48;6.43;;;;;;;;;;5076189;28;20223;-49
2022/07/23 06:29:27;;;;;;;13.63;6.88;;;;;;;;;;5076659;28;20223;-50
2022/07/23 06:31:54;;;;;;;9.73;6.53;;;;;;;;;;5076130;28;20670;-51
2022/07/23 06:34:21;;;;;;;8.30;6.20;;;;;;;;;;5077253;28;20298;-49
2022/07/23 06:36:48;;;;;;;9.18;6.32;;;;;;;;;;5075392;28;20721;-53
2022/07/23 06:39:15;;;;;;;12.00;7.13;;;;;;;;;;5076829;28;20283;-54
2022/07/23 06:41:46;;;;;;;12.60;6.78;;;;;;;;;;5075806;28;20296;-54
2022/07/23 06:44:18;;;;;;;9.27;5.82;;;;;;;;;;5076091;28;20207;-55
2022/07/23 06:46:47;;;;;;;10.25;5.88;;;;;;;;;;5075723;28;20322;-54
2022/07/23 06:49:14;;;;;;;7.57;5.53;;;;;;;;;;5075982;28;20246;-57
2022/07/23 06:51:42;;;;;;;10.98;6.25;;;;;;;;;;5074546;28;20588;-56
2022/07/23 06:54:09;;;;;;;8.20;5.70;;;;;;;;;;5071496;28;20223;-57
2022/07/23 06:56:36;;;;;;;10.52;5.90;;;;;;;;;;5076647;28;20227;-58
2022/07/23 06:59:03;;;;;;;10.40;6.38;;;;;;;;;;5077451;28;20694;-57
2022/07/23 07:01:31;;;;;;;8.13;6.13;;;;;;;;;;5083233;28;20611;-57
2022/07/23 07:03:58;;;;;;;11.13;5.90;;;;;;;;;;5084805;28;20246;-57
2022/07/23 07:06:25;;;;;;;8.13;5.75;;;;;;;;;;5086185;28;20229;-57
2022/07/23 07:08:52;;;;;;;9.98;6.40;;;;;;;;;;5070091;28;20219;-56
2022/07/23 07:11:19;;;;;;;9.60;6.20;;;;;;;;;;5069531;28;20239;-57
2022/07/23 07:13:47;;;;;;;11.27;6.32;;;;;;;;;;5076306;28;20235;-57
2022/07/23 07:16:13;;;;;;;14.07;6.05;;;;;;;;;;5076288;28;20254;-57
2022/07/23 07:18:41;;;;;;;9.95;6.68;;;;;;;;;;5062327;28;20278;-58
2022/07/23 07:21:08;;;;;;;9.07;6.20;;;;;;;;;;5056163;28;20224;-57
2022/07/23 07:23:35;;;;;;;11.00;6.90;;;;;;;;;;5056071;28;20305;-57
2022/07/23 07:26:02;;;;;;;9.43;6.32;;;;;;;;;;5055679;28;20224;-57
2022/07/23 07:28:29;;;;;;;8.93;6.30;;;;;;;;;;5056125;28;20289;-57
2022/07/23 07:30:56;;;;;;;12.88;6.22;;;;;;;;;;5056160;28;20232;-57
2022/07/23 07:33:23;;;;;;;9.07;6.25;;;;;;;;;;5055714;28;20238;-57
2022/07/23 07:35:50;;;;;;;10.68;5.82;;;;;;;;;;5056193;28;20231;-58
2022/07/23 07:38:17;;;;;;;8.95;6.75;;;;;;;;;;5055337;28;20220;-58
2022/07/23 07:40:44;;;;;;;12.07;6.05;;;;;;;;;;5062157;28;20224;-58
2022/07/23 07:43:11;;;;;;;7.35;5.50;;;;;;;;;;5075716;28;20280;-58
2022/07/23 07:45:38;;;;;;;9.65;5.75;;;;;;;;;;5075816;28;20239;-58
2022/07/23 07:48:05;;;;;;;7.28;5.93;;;;;;;;;;5075591;28;20242;-57
2022/07/23 07:50:32;;;;;;;8.80;6.13;;;;;;;;;;5075537;28;20231;-58
2022/07/23 07:53:00;;;;;;;12.32;5.78;;;;;;;;;;5075688;28;20318;-57
2022/07/23 07:55:28;;;;;;;9.63;6.00;;;;;;;;;;5074602;28;20262;-58
2022/07/23 07:57:56;;;;;;;11.70;6.15;;;;;;;;;;5074655;28;20262;-57
2022/07/23 08:00:23;;;;;;;8.20;5.80;;;;;;;;;;5064727;28;20224;-57
2022/07/23 08:02:52;;;;;;;8.93;5.97;;;;;;;;;;5055606;28;20599;-57
2022/07/23 08:05:21;;;;;;;8.85;5.47;;;;;;;;;;5054971;28;20678;-58
2022/07/23 08:07:53;;;;;;;10.73;5.88;;;;;;;;;;5054093;28;20228;-57
2022/07/23 08:10:20;;;;;;;9.73;5.95;;;;;;;;;;5058027;28;20311;-58
2022/07/23 08:12:49;;;;;;;12.30;6.35;;;;;;;;;;5075358;28;20300;-57
2022/07/23 08:15:17;;;;;;;10.48;5.97;;;;;;;;;;5074820;28;20227;-58
2022/07/23 08:17:46;;;;;;;7.15;4.97;;;;;;;;;;5075287;28;20223;-57
2022/07/23 08:20:15;;;;;;;8.80;5.18;;;;;;;;;;5074002;28;20233;-58
2022/07/23 08:22:48;;;;;;;6.95;5.20;;;;;;;;;;5075230;28;20229;-57
2022/07/23 08:25:21;;;;;;;7.78;5.47;;;;;;;;;;5074351;28;20231;-57
2022/07/23 08:27:48;;;;;;;7.47;5.93;;;;;;;;;;5075290;28;20231;-58
2022/07/23 08:30:17;;;;;;;9.25;5.60;;;;;;;;;;5074686;28;20238;-59
2022/07/23 08:33:04;;;;;;;8.30;5.43;;;;;;;;;;5075079;28;20691;-55
2022/07/23 08:35:36;;;;;;;6.30;5.13;;;;;;;;;;5074518;28;20539;-57
2022/07/23 08:38:06;;;;;;;6.53;4.78;;;;;;;;;;5074517;28;20228;-58
2022/07/23 08:40:36;;;;;;;8.55;5.25;;;;;;;;;;5074439;28;20223;-56
2022/07/23 08:43:12;;;;;;;7.05;4.72;;;;;;;;;;5074418;28;20222;-56
2022/07/23 08:45:41;;;;;;;6.97;4.97;;;;;;;;;;5073533;28;20246;-57
2022/07/23 08:48:11;;;;;;;6.25;4.85;;;;;;;;;;5074476;28;20215;-54
2022/07/23 08:50:42;;;;;;;8.05;4.80;;;;;;;;;;5089644;28;20230;-55
2022/07/23 08:53:10;;;;;;;9.05;5.28;;;;;;;;;;5073753;28;20246;-58
2022/07/23 08:55:37;;;;;;;8.35;5.20;;;;;;;;;;5073119;28;20219;-58
2022/07/23 08:58:04;;;;;;;10.25;5.60;;;;;;;;;;5073523;28;20289;-58
2022/07/23 09:00:31;;;;;;;6.45;5.03;;;;;;;;;;5065465;28;20242;-53
2022/07/23 09:02:58;;;;;;;7.55;5.47;;;;;;;;;;5054097;28;20224;-55
2022/07/23 09:05:26;;;;;;;7.40;5.15;;;;;;;;;;5054526;28;20238;-57
2022/07/23 09:08:19;;;;;;;6.30;5.28;;;;;;;;;;5053831;28;20235;-55
2022/07/23 09:10:50;;;;;;;6.47;4.90;;;;;;;;;;5081693;28;20223;-55
2022/07/23 09:13:54;;;;;;;7.60;4.88;;;;;;;;;;5073825;28;20540;-65
2022/07/23 09:16:29;;;;;;;7.28;5.45;;;;;;;;;;5074262;28;20219;-54
2022/07/23 09:18:57;;;;;;;8.93;5.82;;;;;;;;;;5074080;28;20234;-57
2022/07/23 09:21:29;;;;;;;7.25;5.28;;;;;;;;;;5073866;28;20215;-57
2022/07/23 09:24:07;;;;;;;7.80;5.25;;;;;;;;;;5073562;28;20223;-57
2022/07/23 09:26:41;;;;;;;6.70;5.10;;;;;;;;;;5074101;28;20288;-57
2022/07/23 09:29:13;;;;;;;5.30;4.80;;;;;;;;;;5072201;28;20229;-58
2022/07/23 09:31:44;;;;;;;7.10;4.97;;;;;;;;;;5073615;28;20288;-58
2022/07/23 09:34:19;;;;;;;5.97;4.72;;;;;;;;;;5074280;28;20231;-56
2022/07/23 09:36:54;;;;;;;8.18;4.47;;;;;;;;;;5072900;28;20226;-58
2022/07/23 09:39:32;;;;;;;8.02;4.53;;;;;;;;;;5071659;28;20310;-59
2022/07/23 09:42:21;;;;;;;11.52;4.88;;;;;;;;;;5072749;28;20227;-58
2022/07/23 09:44:49;;;;;;;9.43;5.07;;;;;;;;;;5073570;28;20276;-54
2022/07/23 09:47:17;;;;;;;12.38;5.35;;;;;;;;;;5073221;28;20227;-56
2022/07/23 09:50:06;;;;;;;8.30;4.90;;;;;;;;;;5073586;28;20247;-53
2022/07/23 09:52:35;;;;;;;9.85;4.70;;;;;;;;;;5072257;28;20234;-49
2022/07/23 09:55:05;;;;;;;5.88;4.63;;;;;;;;;;5073407;28;20215;-61
2022/07/23 09:57:32;;;;;;;10.05;4.80;;;;;;;;;;5073014;28;20274;-59
2022/07/23 10:00:08;;;;;;;11.18;5.40;;;;;;;;;;5069646;28;20219;-54
2022/07/23 10:02:35;;;;;;;7.13;4.90;;;;;;;;;;5072088;28;20450;-54
2022/07/23 10:05:24;;;;;;;6.05;4.75;;;;;;;;;;5061573;28;20242;-56
2022/07/23 10:08:17;;;;;;;7.25;4.85;;;;;;;;;;5066021;28;20292;-57
2022/07/23 10:11:04;;;;;;;9.95;5.03;;;;;;;;;;5072212;28;20234;-57
2022/07/23 10:13:51;;;;;;;6.10;4.95;;;;;;;;;;5057647;28;20230;-54
2022/07/23 10:16:20;;;;;;;6.85;5.35;;;;;;;;;;5072562;28;20230;-55
2022/07/23 10:18:53;;;;;;;18.60;5.68;;;;;;;;;;5073601;28;20281;-51
2022/07/23 10:21:47;;;;;;;9.80;5.20;;;;;;;;;;5073339;28;20685;-48
2022/07/23 10:24:27;;;;;;;5.53;4.90;;;;;;;;;;5072006;28;20223;-49
2022/07/23 10:27:14;;;;;;;9.93;5.05;;;;;;;;;;5072890;28;20231;-49
2022/07/23 10:30:01;;;;;;;7.78;4.93;;;;;;;;;;5073450;28;20233;-50
2022/07/23 10:32:40;;;;;;;7.13;5.32;;;;;;;;;;5072697;28;20243;-46
2022/07/23 10:35:23;;;;;;;10.48;5.43;;;;;;;;;;5072170;28;20318;-47
2022/07/23 10:38:13;;;;;;;10.23;5.18;;;;;;;;;;5072976;28;20711;-47
2022/07/23 10:41:00;;;;;;;14.30;5.97;;;;;;;;;;5073316;28;20223;-50
2022/07/23 10:43:28;;;;;;;8.32;4.63;;;;;;;;;;5075254;28;20751;-47
2022/07/23 10:45:56;;;;;;;9.30;4.82;;;;;;;;;;5077033;28;20227;-47
2022/07/23 10:48:29;;;;;;;13.23;5.15;;;;;;;;;;5076852;28;20223;-48
2022/07/23 10:51:15;;;;;;;14.40;5.82;;;;;;;;;;5077158;28;20285;-47
2022/07/23 10:53:51;;;;;;;9.18;5.00;;;;;;;;;;5076115;28;20601;-47
2022/07/23 10:56:46;;;;;;;7.35;4.97;;;;;;;;;;5076943;28;20218;-47
2022/07/23 10:59:13;;;;;;;10.02;5.30;;;;;;;;;;5072822;28;20227;-49
2022/07/23 11:01:40;;;;;;;10.50;5.40;;;;;;;;;;5070227;28;20639;-52
2022/07/23 11:04:07;;;;;;;7.82;4.90;;;;;;;;;;5085857;28;20218;-51
2022/07/23 11:06:47;;;;;;;9.07;5.72;;;;;;;;;;5092093;28;20233;-48
2022/07/23 11:09:26;;;;;;;7.28;5.07;;;;;;;;;;5094828;28;20272;-55
2022/07/23 11:12:12;;;;;;;8.63;4.88;;;;;;;;;;5084323;28;20544;-56
2022/07/23 11:15:14;;;;;;;8.23;4.60;;;;;;;;;;5089216;28;20218;-54
2022/07/23 11:17:50;;;;;;;8.07;4.78;;;;;;;;;;5088300;28;20198;-54
2022/07/23 11:20:21;;;;;;;8.10;4.50;;;;;;;;;;5097168;28;20531;-54
2022/07/23 11:22:55;;;;;;;6.82;4.70;;;;;;;;;;5097544;28;20206;-52
2022/07/23 11:25:22;;;;;;;6.90;5.10;;;;;;;;;;5097504;28;20206;-55
2022/07/23 11:27:51;;;;;;;4.60;4.20;;;;;;;;;;5097863;28;20199;-56
2022/07/23 11:30:27;;;;;;;8.07;4.30;;;;;;;;;;5097200;28;20213;-48
2022/07/23 11:33:14;;;;;;;18.35;5.93;;;;;;;;;;5091206;28;20218;-54
2022/07/23 11:35:46;;;;;;;13.18;4.90;;;;;;;;;;5081163;28;20195;-59
2022/07/23 11:38:15;;;;;;;5.20;4.43;;;;;;;;;;5088442;28;20623;-62
2022/07/23 11:40:50;;;;;;;7.90;5.18;;;;;;;;;;5086275;28;20199;-58
2022/07/23 11:43:18;;;;;;;8.25;4.70;;;;;;;;;;5084198;28;20244;-57
2022/07/23 11:46:06;;;;;;;8.52;5.10;;;;;;;;;;5085858;28;20225;-57
2022/07/23 11:48:33;;;;;;;6.85;4.65;;;;;;;;;;5076914;28;20198;-58
2022/07/23 11:51:06;;;;;;;6.20;4.63;;;;;;;;;;5084333;28;20180;-58
2022/07/23 11:53:34;;;;;;;9.85;4.70;;;;;;;;;;5078542;28;20225;-58
2022/07/23 11:56:06;;;;;;;7.03;4.45;;;;;;;;;;5085563;28;20230;-59
2022/07/23 11:58:33;;;;;;;5.13;4.47;;;;;;;;;;5090996;28;20242;-58
2022/07/23 12:01:00;;;;;;;10.45;4.47;;;;;;;;;;5067974;28;20215;-58
2022/07/23 12:03:27;;;;;;;7.00;4.80;;;;;;;;;;5055716;28;20258;-57
2022/07/23 12:05:59;;;;;;;4.82;4.30;;;;;;;;;;5055917;28;20299;-59
2022/07/23 12:08:26;;;;;;;10.98;4.97;;;;;;;;;;5081206;28;20191;-60
2022/07/23 12:10:53;;;;;;;7.95;4.60;;;;;;;;;;5081286;28;20270;-57
2022/07/23 12:13:22;;;;;;;7.97;4.63;;;;;;;;;;5084329;28;20313;-49
2022/07/23 12:15:52;;;;;;;8.38;4.95;;;;;;;;;;5078170;28;20576;-55
2022/07/23 12:18:20;;;;;;;7.88;4.80;;;;;;;;;;5080833;28;20294;-50
2022/07/23 12:20:50;;;;;;;4.97;4.20;;;;;;;;;;5092926;28;20199;-51
2022/07/23 12:23:19;;;;;;;7.18;4.82;;;;;;;;;;5077733;28;20233;-49
2022/07/23 12:25:49;;;;;;;6.43;4.80;;;;;;;;;;5088929;28;20239;-52
2022/07/23 12:28:27;;;;;;;11.18;5.30;;;;;;;;;;5083121;28;20633;-53
2022/07/23 12:30:55;;;;;;;7.45;5.28;;;;;;;;;;5084797;28;20335;-54
2022/07/23 12:33:25;;;;;;;7.95;5.32;;;;;;;;;;5090598;28;20309;-48
2022/07/23 12:35:54;;;;;;;8.27;4.70;;;;;;;;;;5095098;28;20206;-49
2022/07/23 12:38:22;;;;;;;10.80;5.10;;;;;;;;;;5095240;28;20248;-49
2022/07/23 12:40:57;;;;;;;6.90;4.72;;;;;;;;;;5095263;28;20202;-46
2022/07/23 12:43:29;;;;;;;8.20;4.93;;;;;;;;;;5095384;28;20213;-50
2022/07/23 12:45:57;;;;;;;7.47;4.80;;;;;;;;;;5095821;28;20606;-47
2022/07/23 12:48:31;;;;;;;6.65;5.03;;;;;;;;;;5094378;28;20244;-47
2022/07/23 12:51:00;;;;;;;7.15;5.20;;;;;;;;;;5095750;28;20202;-51
2022/07/23 12:53:39;;;;;;;8.25;4.60;;;;;;;;;;5083929;28;20234;-46
2022/07/23 12:56:07;;;;;;;8.55;5.07;;;;;;;;;;5074894;28;20213;-45
2022/07/23 12:59:01;;;;;;;8.88;5.00;;;;;;;;;;5073705;28;20592;-46
2022/07/23 13:01:35;;;;;;;7.85;5.03;;;;;;;;;;5064084;28;20274;-47
2022/07/23 13:04:05;;;;;;;8.60;5.03;;;;;;;;;;5055309;28;20536;-45
2022/07/23 13:06:47;;;;;;;6.00;4.60;;;;;;;;;;5075613;28;20202;-45
2022/07/23 13:09:18;;;;;;;11.73;5.00;;;;;;;;;;5096178;28;20198;-49
2022/07/23 13:11:46;;;;;;;6.80;4.82;;;;;;;;;;5095927;28;20526;-45
2022/07/23 13:14:14;;;;;;;7.88;4.97;;;;;;;;;;5095842;28;20291;-48
2022/07/23 13:16:42;;;;;;;7.60;4.65;;;;;;;;;;5081730;28;20202;-50
2022/07/23 13:19:11;;;;;;;6.28;5.43;;;;;;;;;;5072882;28;20227;-54
2022/07/23 13:21:39;;;;;;;8.00;5.20;;;;;;;;;;5082569;28;20227;-49
2022/07/23 13:24:07;;;;;;;7.40;4.85;;;;;;;;;;5086352;28;20310;-50
2022/07/23 13:26:36;;;;;;;8.95;5.40;;;;;;;;;;5075430;28;20816;-46
2022/07/23 13:29:04;;;;;;;7.57;4.82;;;;;;;;;;5073026;28;20231;-46
2022/07/23 13:31:37;;;;;;;7.82;5.25;;;;;;;;;;5073623;28;20303;-49
2022/07/23 13:34:05;;;;;;;9.35;5.38;;;;;;;;;;5072866;28;20234;-48
2022/07/23 13:36:34;;;;;;;7.93;5.85;;;;;;;;;;5074276;28;20330;-46
2022/07/23 13:39:03;;;;;;;9.60;6.30;;;;;;;;;;5075094;28;20450;-51
2022/07/23 13:41:31;;;;;;;8.27;5.38;;;;;;;;;;5091635;28;20221;-48
2022/07/23 13:43:59;;;;;;;9.48;5.85;;;;;;;;;;5093604;28;20227;-46
2022/07/23 13:46:26;;;;;;;6.43;5.70;;;;;;;;;;5093114;28;20242;-47
2022/07/23 13:48:53;;;;;;;10.55;5.82;;;;;;;;;;5093377;28;20230;-48
2022/07/23 13:51:20;;;;;;;6.70;5.47;;;;;;;;;;5093969;28;20637;-50
2022/07/23 13:53:50;;;;;;;7.65;5.20;;;;;;;;;;5093254;28;20424;-51
2022/07/23 13:56:18;;;;;;;9.55;5.55;;;;;;;;;;5087236;28;20241;-50
2022/07/23 13:58:45;;;;;;;7.00;4.78;;;;;;;;;;5067959;28;20235;-49
2022/07/23 14:01:12;;;;;;;10.32;5.32;;;;;;;;;;5081685;28;20214;-47
2022/07/23 14:03:39;;;;;;;7.72;5.45;;;;;;;;;;5077427;28;20288;-47
2022/07/23 14:06:07;;;;;;;11.40;6.15;;;;;;;;;;5070692;28;20302;-49
2022/07/23 14:08:43;;;;;;;7.35;5.95;;;;;;;;;;5072365;28;20676;-50
2022/07/23 14:11:12;;;;;;;7.40;5.47;;;;;;;;;;5073327;28;20718;-49
2022/07/23 14:13:39;;;;;;;14.00;5.68;;;;;;;;;;5072489;28;20273;-48
2022/07/23 14:16:07;;;;;;;10.05;5.85;;;;;;;;;;5068753;28;20223;-46
2022/07/23 14:18:34;;;;;;;7.13;5.05;;;;;;;;;;5066214;28;20284;-47
2022/07/23 14:21:02;;;;;;;13.63;5.95;;;;;;;;;;5076734;28;20554;-57
2022/07/23 14:23:29;;;;;;;13.52;5.68;;;;;;;;;;5077445;28;20619;-58
2022/07/23 14:25:57;;;;;;;10.55;6.20;;;;;;;;;;5084928;28;20667;-59
2022/07/23 14:28:24;;;;;;;9.05;6.28;;;;;;;;;;5096525;28;20528;-56
2022/07/23 14:30:51;;;;;;;7.82;5.95;;;;;;;;;;5097451;28;20226;-58
2022/07/23 14:33:19;;;;;;;10.98;5.78;;;;;;;;;;5094192;28;20243;-57
2022/07/23 14:35:46;;;;;;;9.13;6.00;;;;;;;;;;5080529;28;20227;-56
2022/07/23 14:38:14;;;;;;;9.65;6.10;;;;;;;;;;5091169;28;20230;-54
2022/07/23 14:40:41;;;;;;;9.35;5.68;;;;;;;;;;5099623;28;20230;-63
2022/07/23 14:43:09;;;;;;;9.73;6.00;;;;;;;;;;5098164;28;20687;-60
2022/07/23 14:45:56;;;;;;;13.45;6.03;;;;;;;;;;5098114;28;20234;-57
2022/07/23 14:48:23;;;;;;;8.15;5.78;;;;;;;;;;5097608;28;20234;-65